sensor_id;sensor_type;location;lat;lon;timestamp;P1;durP1;ratioP1;P2;durP2;ratioP2
46765;SDS011;32527;51.986;5.842;2023-05-27T00:00:21;13.45;;;12.45;;
46765;SDS011;32527;51.986;5.842;2023-05-27T00:02:47;10.00;;;4.72;;
46765;SDS011;32527;51.986;5.842;2023-05-27T00:05:13;8.13;;;5.72;;
46765;SDS011;32527;51.986;5.842;2023-05-27T00:07:39;11.07;;;4.45;;
46765;SDS011;32527;51.986;5.842;2023-05-27T00:10:06;12.32;;;3.58;;
46765;SDS011;32527;51.986;5.842;2023-05-27T00:12:32;6.82;;;5.70;;
46765;SDS011;32527;51.986;5.842;2023-05-27T00:14:58;10.90;;;3.65;;
46765;SDS011;32527;51.986;5.842;2023-05-27T00:17:24;11.68;;;4.72;;
46765;SDS011;32527;51.986;5.842;2023-05-27T00:19:51;12.50;;;3.90;;
46765;SDS011;32527;51.986;5.842;2023-05-27T00:22:18;8.50;;;5.03;;
46765;SDS011;32527;51.986;5.842;2023-05-27T00:24:45;12.95;;;5.10;;
46765;SDS011;32527;51.986;5.842;2023-05-27T00:27:11;8.38;;;3.83;;
46765;SDS011;32527;51.986;5.842;2023-05-27T00:29:37;4.20;;;3.47;;
46765;SDS011;32527;51.986;5.842;2023-05-27T00:32:03;6.15;;;3.63;;
46765;SDS011;32527;51.986;5.842;2023-05-27T00:34:30;7.28;;;4.38;;
46765;SDS011;32527;51.986;5.842;2023-05-27T00:36:56;4.93;;;3.58;;
46765;SDS011;32527;51.986;5.842;2023-05-27T00:39:22;6.55;;;4.28;;
46765;SDS011;32527;51.986;5.842;2023-05-27T00:41:49;9.25;;;8.43;;
46765;SDS011;32527;51.986;5.842;2023-05-27T00:44:16;5.00;;;4.45;;
46765;SDS011;32527;51.986;5.842;2023-05-27T00:46:42;7.35;;;3.70;;
46765;SDS011;32527;51.986;5.842;2023-05-27T00:49:08;6.65;;;3.97;;
46765;SDS011;32527;51.986;5.842;2023-05-27T00:51:34;12.98;;;4.25;;
46765;SDS011;32527;51.986;5.842;2023-05-27T00:54:01;8.43;;;3.95;;
46765;SDS011;32527;51.986;5.842;2023-05-27T00:56:27;13.10;;;5.30;;
46765;SDS011;32527;51.986;5.842;2023-05-27T00:58:53;15.75;;;6.88;;
46765;SDS011;32527;51.986;5.842;2023-05-27T01:01:20;15.43;;;4.47;;
46765;SDS011;32527;51.986;5.842;2023-05-27T01:03:50;9.65;;;8.20;;
46765;SDS011;32527;51.986;5.842;2023-05-27T01:06:25;7.55;;;3.80;;
46765;SDS011;32527;51.986;5.842;2023-05-27T01:09:17;5.57;;;4.63;;
46765;SDS011;32527;51.986;5.842;2023-05-27T01:14:27;11.18;;;4.45;;
46765;SDS011;32527;51.986;5.842;2023-05-27T01:16:54;6.32;;;3.47;;
46765;SDS011;32527;51.986;5.842;2023-05-27T01:19:35;11.23;;;4.00;;
46765;SDS011;32527;51.986;5.842;2023-05-27T01:22:17;11.75;;;5.15;;
46765;SDS011;32527;51.986;5.842;2023-05-27T01:24:45;9.35;;;4.15;;
46765;SDS011;32527;51.986;5.842;2023-05-27T01:27:12;10.80;;;4.45;;
46765;SDS011;32527;51.986;5.842;2023-05-27T01:29:42;9.15;;;3.80;;
46765;SDS011;32527;51.986;5.842;2023-05-27T01:32:17;4.60;;;3.30;;
46765;SDS011;32527;51.986;5.842;2023-05-27T01:34:50;5.80;;;4.10;;
46765;SDS011;32527;51.986;5.842;2023-05-27T01:37:20;9.18;;;3.88;;
46765;SDS011;32527;51.986;5.842;2023-05-27T01:39:49;9.48;;;3.67;;
46765;SDS011;32527;51.986;5.842;2023-05-27T01:42:16;14.30;;;4.45;;
46765;SDS011;32527;51.986;5.842;2023-05-27T01:44:43;11.07;;;4.70;;
46765;SDS011;32527;51.986;5.842;2023-05-27T01:47:10;7.00;;;4.03;;
46765;SDS011;32527;51.986;5.842;2023-05-27T01:49:36;4.63;;;3.42;;
46765;SDS011;32527;51.986;5.842;2023-05-27T01:52:02;6.63;;;3.78;;
46765;SDS011;32527;51.986;5.842;2023-05-27T01:54:28;4.90;;;4.30;;
46765;SDS011;32527;51.986;5.842;2023-05-27T01:56:54;7.57;;;5.82;;
46765;SDS011;32527;51.986;5.842;2023-05-27T01:59:20;13.32;;;4.15;;
46765;SDS011;32527;51.986;5.842;2023-05-27T02:01:47;7.78;;;3.80;;
46765;SDS011;32527;51.986;5.842;2023-05-27T02:04:13;15.88;;;4.63;;
46765;SDS011;32527;51.986;5.842;2023-05-27T02:06:39;12.43;;;3.83;;
46765;SDS011;32527;51.986;5.842;2023-05-27T02:09:05;7.10;;;4.20;;
46765;SDS011;32527;51.986;5.842;2023-05-27T02:11:32;9.90;;;4.50;;
46765;SDS011;32527;51.986;5.842;2023-05-27T02:13:58;5.00;;;4.13;;
46765;SDS011;32527;51.986;5.842;2023-05-27T02:16:25;5.55;;;3.15;;
46765;SDS011;32527;51.986;5.842;2023-05-27T02:18:52;11.55;;;5.50;;
46765;SDS011;32527;51.986;5.842;2023-05-27T02:21:18;8.13;;;4.53;;
46765;SDS011;32527;51.986;5.842;2023-05-27T02:23:44;5.53;;;3.63;;
46765;SDS011;32527;51.986;5.842;2023-05-27T02:26:11;3.95;;;3.25;;
46765;SDS011;32527;51.986;5.842;2023-05-27T02:28:37;14.18;;;4.10;;
46765;SDS011;32527;51.986;5.842;2023-05-27T02:31:04;8.45;;;3.80;;
46765;SDS011;32527;51.986;5.842;2023-05-27T02:33:30;7.25;;;3.83;;
46765;SDS011;32527;51.986;5.842;2023-05-27T02:35:56;9.00;;;4.30;;
46765;SDS011;32527;51.986;5.842;2023-05-27T02:38:22;9.95;;;4.20;;
46765;SDS011;32527;51.986;5.842;2023-05-27T02:40:48;7.07;;;4.25;;
46765;SDS011;32527;51.986;5.842;2023-05-27T02:43:16;6.53;;;4.53;;
46765;SDS011;32527;51.986;5.842;2023-05-27T02:45:42;5.22;;;3.90;;
46765;SDS011;32527;51.986;5.842;2023-05-27T02:48:09;12.15;;;4.20;;
46765;SDS011;32527;51.986;5.842;2023-05-27T02:50:37;8.00;;;4.78;;
46765;SDS011;32527;51.986;5.842;2023-05-27T02:53:04;10.48;;;4.68;;
46765;SDS011;32527;51.986;5.842;2023-05-27T02:55:31;12.82;;;4.35;;
46765;SDS011;32527;51.986;5.842;2023-05-27T02:57:57;17.02;;;4.18;;
46765;SDS011;32527;51.986;5.842;2023-05-27T03:00:23;10.80;;;4.05;;
46765;SDS011;32527;51.986;5.842;2023-05-27T03:02:50;12.07;;;3.53;;
46765;SDS011;32527;51.986;5.842;2023-05-27T03:05:16;8.35;;;3.95;;
46765;SDS011;32527;51.986;5.842;2023-05-27T03:07:42;8.48;;;4.00;;
46765;SDS011;32527;51.986;5.842;2023-05-27T03:10:09;8.35;;;5.68;;
46765;SDS011;32527;51.986;5.842;2023-05-27T03:12:36;9.75;;;3.53;;
46765;SDS011;32527;51.986;5.842;2023-05-27T03:15:03;9.88;;;3.92;;
46765;SDS011;32527;51.986;5.842;2023-05-27T03:17:30;11.20;;;3.85;;
46765;SDS011;32527;51.986;5.842;2023-05-27T03:19:56;13.18;;;5.20;;
46765;SDS011;32527;51.986;5.842;2023-05-27T03:22:22;14.65;;;3.97;;
46765;SDS011;32527;51.986;5.842;2023-05-27T03:24:49;11.48;;;4.15;;
46765;SDS011;32527;51.986;5.842;2023-05-27T03:27:16;8.80;;;3.95;;
46765;SDS011;32527;51.986;5.842;2023-05-27T03:29:44;9.80;;;4.47;;
46765;SDS011;32527;51.986;5.842;2023-05-27T03:32:12;7.95;;;3.90;;
46765;SDS011;32527;51.986;5.842;2023-05-27T03:34:39;6.93;;;4.45;;
46765;SDS011;32527;51.986;5.842;2023-05-27T03:37:06;8.15;;;4.28;;
46765;SDS011;32527;51.986;5.842;2023-05-27T03:39:53;4.40;;;4.00;;
46765;SDS011;32527;51.986;5.842;2023-05-27T03:42:20;8.07;;;3.90;;
46765;SDS011;32527;51.986;5.842;2023-05-27T03:44:46;8.02;;;4.93;;
46765;SDS011;32527;51.986;5.842;2023-05-27T03:47:12;4.57;;;3.70;;
46765;SDS011;32527;51.986;5.842;2023-05-27T03:49:38;8.65;;;4.65;;
46765;SDS011;32527;51.986;5.842;2023-05-27T03:52:05;5.75;;;4.47;;
46765;SDS011;32527;51.986;5.842;2023-05-27T03:54:32;7.72;;;4.45;;
46765;SDS011;32527;51.986;5.842;2023-05-27T03:56:58;7.40;;;3.38;;
46765;SDS011;32527;51.986;5.842;2023-05-27T03:59:25;8.60;;;4.32;;
46765;SDS011;32527;51.986;5.842;2023-05-27T04:01:52;15.70;;;5.43;;
46765;SDS011;32527;51.986;5.842;2023-05-27T04:04:18;7.68;;;3.85;;
46765;SDS011;32527;51.986;5.842;2023-05-27T04:06:45;10.63;;;4.18;;
46765;SDS011;32527;51.986;5.842;2023-05-27T04:09:14;29.63;;;5.10;;
46765;SDS011;32527;51.986;5.842;2023-05-27T04:11:40;20.25;;;5.35;;
46765;SDS011;32527;51.986;5.842;2023-05-27T04:14:06;8.50;;;4.28;;
46765;SDS011;32527;51.986;5.842;2023-05-27T04:16:32;6.70;;;4.05;;
46765;SDS011;32527;51.986;5.842;2023-05-27T04:18:59;11.35;;;4.57;;
46765;SDS011;32527;51.986;5.842;2023-05-27T04:21:25;10.30;;;4.35;;
46765;SDS011;32527;51.986;5.842;2023-05-27T04:23:54;8.15;;;5.07;;
46765;SDS011;32527;51.986;5.842;2023-05-27T04:26:22;7.70;;;4.38;;
46765;SDS011;32527;51.986;5.842;2023-05-27T04:28:52;6.55;;;4.20;;
46765;SDS011;32527;51.986;5.842;2023-05-27T04:31:20;6.20;;;4.40;;
46765;SDS011;32527;51.986;5.842;2023-05-27T04:33:56;11.23;;;4.80;;
46765;SDS011;32527;51.986;5.842;2023-05-27T04:36:22;5.70;;;4.45;;
46765;SDS011;32527;51.986;5.842;2023-05-27T04:39:01;6.50;;;4.75;;
46765;SDS011;32527;51.986;5.842;2023-05-27T04:41:30;6.18;;;4.68;;
46765;SDS011;32527;51.986;5.842;2023-05-27T04:44:09;14.27;;;4.43;;
46765;SDS011;32527;51.986;5.842;2023-05-27T04:46:43;14.20;;;5.35;;
46765;SDS011;32527;51.986;5.842;2023-05-27T04:49:09;13.68;;;4.80;;
46765;SDS011;32527;51.986;5.842;2023-05-27T04:51:37;17.70;;;5.30;;
46765;SDS011;32527;51.986;5.842;2023-05-27T04:54:03;8.10;;;4.72;;
46765;SDS011;32527;51.986;5.842;2023-05-27T04:56:32;19.00;;;5.57;;
46765;SDS011;32527;51.986;5.842;2023-05-27T04:58:58;9.60;;;4.95;;
46765;SDS011;32527;51.986;5.842;2023-05-27T05:01:33;9.15;;;6.10;;
46765;SDS011;32527;51.986;5.842;2023-05-27T05:04:25;13.52;;;6.30;;
46765;SDS011;32527;51.986;5.842;2023-05-27T05:06:55;20.42;;;18.83;;
46765;SDS011;32527;51.986;5.842;2023-05-27T05:09:22;10.77;;;5.68;;
46765;SDS011;32527;51.986;5.842;2023-05-27T05:11:49;6.15;;;5.55;;
46765;SDS011;32527;51.986;5.842;2023-05-27T05:14:15;9.50;;;6.88;;
46765;SDS011;32527;51.986;5.842;2023-05-27T05:16:41;11.25;;;10.38;;
46765;SDS011;32527;51.986;5.842;2023-05-27T05:19:08;8.15;;;7.35;;
46765;SDS011;32527;51.986;5.842;2023-05-27T05:21:37;12.45;;;11.45;;
46765;SDS011;32527;51.986;5.842;2023-05-27T05:24:05;13.48;;;10.60;;
46765;SDS011;32527;51.986;5.842;2023-05-27T05:26:31;13.02;;;10.75;;
46765;SDS011;32527;51.986;5.842;2023-05-27T05:29:00;46.38;;;43.20;;
46765;SDS011;32527;51.986;5.842;2023-05-27T05:31:26;14.60;;;13.23;;
46765;SDS011;32527;51.986;5.842;2023-05-27T05:33:54;19.25;;;17.67;;
46765;SDS011;32527;51.986;5.842;2023-05-27T05:36:20;13.95;;;11.88;;
46765;SDS011;32527;51.986;5.842;2023-05-27T05:38:57;59.20;;;54.88;;
46765;SDS011;32527;51.986;5.842;2023-05-27T05:41:24;17.15;;;15.85;;
46765;SDS011;32527;51.986;5.842;2023-05-27T05:43:51;25.88;;;24.05;;
46765;SDS011;32527;51.986;5.842;2023-05-27T05:46:18;23.05;;;21.30;;
46765;SDS011;32527;51.986;5.842;2023-05-27T05:48:44;30.33;;;28.25;;
46765;SDS011;32527;51.986;5.842;2023-05-27T05:51:14;35.20;;;33.13;;
46765;SDS011;32527;51.986;5.842;2023-05-27T05:53:43;90.63;;;85.53;;
46765;SDS011;32527;51.986;5.842;2023-05-27T05:56:10;61.75;;;58.42;;
46765;SDS011;32527;51.986;5.842;2023-05-27T05:58:36;88.28;;;82.95;;
46765;SDS011;32527;51.986;5.842;2023-05-27T06:01:02;59.63;;;56.13;;
46765;SDS011;32527;51.986;5.842;2023-05-27T06:03:38;66.15;;;62.80;;
46765;SDS011;32527;51.986;5.842;2023-05-27T06:06:07;102.82;;;97.63;;
46765;SDS011;32527;51.986;5.842;2023-05-27T06:08:43;133.40;;;126.13;;
46765;SDS011;32527;51.986;5.842;2023-05-27T06:11:15;150.43;;;142.15;;
46765;SDS011;32527;51.986;5.842;2023-05-27T06:13:43;166.07;;;157.05;;
46765;SDS011;32527;51.986;5.842;2023-05-27T06:16:11;216.32;;;203.50;;
46765;SDS011;32527;51.986;5.842;2023-05-27T06:18:38;193.70;;;182.98;;
46765;SDS011;32527;51.986;5.842;2023-05-27T06:21:04;244.75;;;230.95;;
46765;SDS011;32527;51.986;5.842;2023-05-27T06:23:50;223.30;;;211.00;;
46765;SDS011;32527;51.986;5.842;2023-05-27T06:26:17;259.55;;;244.77;;
46765;SDS011;32527;51.986;5.842;2023-05-27T06:28:48;281.05;;;264.98;;
46765;SDS011;32527;51.986;5.842;2023-05-27T06:31:15;345.42;;;325.27;;
46765;SDS011;32527;51.986;5.842;2023-05-27T06:33:41;508.45;;;467.73;;
46765;SDS011;32527;51.986;5.842;2023-05-27T06:36:08;437.83;;;410.00;;
46765;SDS011;32527;51.986;5.842;2023-05-27T06:38:34;424.52;;;397.83;;
46765;SDS011;32527;51.986;5.842;2023-05-27T06:41:01;434.92;;;407.20;;
46765;SDS011;32527;51.986;5.842;2023-05-27T06:43:28;468.60;;;437.10;;
46765;SDS011;32527;51.986;5.842;2023-05-27T06:45:59;479.60;;;447.02;;
46765;SDS011;32527;51.986;5.842;2023-05-27T06:48:39;451.48;;;422.33;;
46765;SDS011;32527;51.986;5.842;2023-05-27T06:51:06;501.00;;;466.65;;
46765;SDS011;32527;51.986;5.842;2023-05-27T06:53:33;560.33;;;521.35;;
46765;SDS011;32527;51.986;5.842;2023-05-27T06:56:05;571.20;;;530.00;;
46765;SDS011;32527;51.986;5.842;2023-05-27T06:58:54;629.95;;;582.65;;
46765;SDS011;32527;51.986;5.842;2023-05-27T07:01:20;651.83;;;601.00;;
46765;SDS011;32527;51.986;5.842;2023-05-27T07:03:52;693.67;;;639.63;;
46765;SDS011;32527;51.986;5.842;2023-05-27T07:06:32;717.15;;;659.05;;
46765;SDS011;32527;51.986;5.842;2023-05-27T07:08:58;726.20;;;667.42;;
46765;SDS011;32527;51.986;5.842;2023-05-27T07:11:31;734.10;;;674.27;;
46765;SDS011;32527;51.986;5.842;2023-05-27T07:14:01;740.72;;;680.38;;
46765;SDS011;32527;51.986;5.842;2023-05-27T07:16:30;751.85;;;690.42;;
46765;SDS011;32527;51.986;5.842;2023-05-27T07:18:57;757.53;;;694.40;;
46765;SDS011;32527;51.986;5.842;2023-05-27T07:21:25;764.38;;;700.83;;
46765;SDS011;32527;51.986;5.842;2023-05-27T07:23:51;777.45;;;713.42;;
46765;SDS011;32527;51.986;5.842;2023-05-27T07:26:28;735.17;;;676.65;;
46765;SDS011;32527;51.986;5.842;2023-05-27T07:28:56;742.90;;;683.22;;
46765;SDS011;32527;51.986;5.842;2023-05-27T07:31:57;716.38;;;658.63;;
46765;SDS011;32527;51.986;5.842;2023-05-27T07:34:27;723.33;;;663.33;;
46765;SDS011;32527;51.986;5.842;2023-05-27T07:36:53;732.97;;;672.47;;
46765;SDS011;32527;51.986;5.842;2023-05-27T07:39:27;698.88;;;645.28;;
46765;SDS011;32527;51.986;5.842;2023-05-27T07:41:54;694.67;;;640.53;;
46765;SDS011;32527;51.986;5.842;2023-05-27T07:44:21;712.38;;;656.10;;
46765;SDS011;32527;51.986;5.842;2023-05-27T07:46:47;706.85;;;649.95;;
46765;SDS011;32527;51.986;5.842;2023-05-27T07:49:13;733.75;;;674.78;;
46765;SDS011;32527;51.986;5.842;2023-05-27T07:51:52;724.72;;;666.53;;
46765;SDS011;32527;51.986;5.842;2023-05-27T07:54:17;747.33;;;686.17;;
46765;SDS011;32527;51.986;5.842;2023-05-27T07:56:44;753.72;;;691.67;;
46765;SDS011;32527;51.986;5.842;2023-05-27T07:59:10;775.72;;;711.72;;
46765;SDS011;32527;51.986;5.842;2023-05-27T08:01:36;753.75;;;690.53;;
46765;SDS011;32527;51.986;5.842;2023-05-27T08:04:02;775.42;;;709.47;;
46765;SDS011;32527;51.986;5.842;2023-05-27T08:06:47;796.47;;;728.55;;
46765;SDS011;32527;51.986;5.842;2023-05-27T08:09:29;764.03;;;698.70;;
46765;SDS011;32527;51.986;5.842;2023-05-27T08:12:20;754.88;;;691.78;;
46765;SDS011;32527;51.986;5.842;2023-05-27T08:15:06;733.45;;;671.72;;
46765;SDS011;32527;51.986;5.842;2023-05-27T08:17:56;762.58;;;698.88;;
46765;SDS011;32527;51.986;5.842;2023-05-27T08:20:45;758.67;;;694.78;;
46765;SDS011;32527;51.986;5.842;2023-05-27T08:23:20;734.60;;;672.08;;
46765;SDS011;32527;51.986;5.842;2023-05-27T08:25:52;766.50;;;701.60;;
46765;SDS011;32527;51.986;5.842;2023-05-27T08:28:55;778.08;;;712.85;;
46765;SDS011;32527;51.986;5.842;2023-05-27T08:31:54;764.40;;;699.92;;
46765;SDS011;32527;51.986;5.842;2023-05-27T08:34:20;737.97;;;675.35;;
46765;SDS011;32527;51.986;5.842;2023-05-27T08:36:46;737.05;;;674.80;;
46765;SDS011;32527;51.986;5.842;2023-05-27T08:39:12;753.53;;;690.63;;
46765;SDS011;32527;51.986;5.842;2023-05-27T08:41:45;715.72;;;654.35;;
46765;SDS011;32527;51.986;5.842;2023-05-27T08:44:11;711.55;;;650.35;;
46765;SDS011;32527;51.986;5.842;2023-05-27T08:46:38;718.78;;;657.85;;
46765;SDS011;32527;51.986;5.842;2023-05-27T08:49:05;749.08;;;686.15;;
46765;SDS011;32527;51.986;5.842;2023-05-27T08:51:32;693.72;;;635.00;;
46765;SDS011;32527;51.986;5.842;2023-05-27T08:54:00;703.58;;;644.03;;
46765;SDS011;32527;51.986;5.842;2023-05-27T08:56:26;698.50;;;639.80;;
46765;SDS011;32527;51.986;5.842;2023-05-27T08:58:56;689.00;;;630.88;;
46765;SDS011;32527;51.986;5.842;2023-05-27T09:01:23;701.70;;;641.95;;
46765;SDS011;32527;51.986;5.842;2023-05-27T09:03:55;715.97;;;655.88;;
46765;SDS011;32527;51.986;5.842;2023-05-27T09:06:22;714.97;;;653.50;;
46765;SDS011;32527;51.986;5.842;2023-05-27T09:08:48;732.72;;;670.10;;
46765;SDS011;32527;51.986;5.842;2023-05-27T09:13:47;773.78;;;708.88;;
46765;SDS011;32527;51.986;5.842;2023-05-27T09:16:13;740.38;;;678.33;;
46765;SDS011;32527;51.986;5.842;2023-05-27T09:18:41;738.13;;;676.17;;
46765;SDS011;32527;51.986;5.842;2023-05-27T09:21:06;732.85;;;670.60;;
46765;SDS011;32527;51.986;5.842;2023-05-27T09:23:39;720.55;;;659.38;;
46765;SDS011;32527;51.986;5.842;2023-05-27T09:26:08;724.78;;;661.47;;
46765;SDS011;32527;51.986;5.842;2023-05-27T09:28:35;681.65;;;624.70;;
46765;SDS011;32527;51.986;5.842;2023-05-27T09:31:04;649.08;;;594.10;;
46765;SDS011;32527;51.986;5.842;2023-05-27T09:33:32;635.72;;;583.65;;
46765;SDS011;32527;51.986;5.842;2023-05-27T09:35:59;702.67;;;643.00;;
46765;SDS011;32527;51.986;5.842;2023-05-27T09:38:33;672.80;;;614.30;;
46765;SDS011;32527;51.986;5.842;2023-05-27T09:43:26;760.40;;;696.28;;
46765;SDS011;32527;51.986;5.842;2023-05-27T09:45:59;755.58;;;690.42;;
46765;SDS011;32527;51.986;5.842;2023-05-27T09:48:28;745.40;;;681.33;;
46765;SDS011;32527;51.986;5.842;2023-05-27T09:50:57;746.47;;;682.08;;
46765;SDS011;32527;51.986;5.842;2023-05-27T09:53:28;672.10;;;614.20;;
46765;SDS011;32527;51.986;5.842;2023-05-27T09:55:55;655.03;;;599.38;;
46765;SDS011;32527;51.986;5.842;2023-05-27T09:58:23;584.95;;;535.40;;
46765;SDS011;32527;51.986;5.842;2023-05-27T10:00:49;566.97;;;519.50;;
46765;SDS011;32527;51.986;5.842;2023-05-27T10:03:16;574.53;;;525.63;;
46765;SDS011;32527;51.986;5.842;2023-05-27T10:05:45;578.05;;;529.53;;
46765;SDS011;32527;51.986;5.842;2023-05-27T10:08:13;570.63;;;523.22;;
46765;SDS011;32527;51.986;5.842;2023-05-27T10:10:39;605.75;;;554.05;;
46765;SDS011;32527;51.986;5.842;2023-05-27T10:13:05;626.00;;;573.40;;
46765;SDS011;32527;51.986;5.842;2023-05-27T10:15:31;639.65;;;584.25;;
46765;SDS011;32527;51.986;5.842;2023-05-27T10:20:38;692.88;;;634.35;;
46765;SDS011;32527;51.986;5.842;2023-05-27T10:25:44;732.75;;;671.03;;
46765;SDS011;32527;51.986;5.842;2023-05-27T10:33:30;601.42;;;551.08;;
46765;SDS011;32527;51.986;5.842;2023-05-27T10:36:04;564.05;;;514.92;;
46765;SDS011;32527;51.986;5.842;2023-05-27T10:38:34;489.63;;;448.98;;
46765;SDS011;32527;51.986;5.842;2023-05-27T10:41:01;521.63;;;477.48;;
46765;SDS011;32527;51.986;5.842;2023-05-27T10:43:28;518.47;;;474.35;;
46765;SDS011;32527;51.986;5.842;2023-05-27T10:46:07;589.22;;;539.95;;
46765;SDS011;32527;51.986;5.842;2023-05-27T10:48:37;590.08;;;539.88;;
46765;SDS011;32527;51.986;5.842;2023-05-27T10:51:05;573.78;;;524.72;;
46765;SDS011;32527;51.986;5.842;2023-05-27T10:53:35;511.85;;;467.25;;
46765;SDS011;32527;51.986;5.842;2023-05-27T10:56:03;450.73;;;413.98;;
46765;SDS011;32527;51.986;5.842;2023-05-27T10:58:29;468.58;;;428.00;;
46765;SDS011;32527;51.986;5.842;2023-05-27T11:00:59;414.17;;;380.58;;
46765;SDS011;32527;51.986;5.842;2023-05-27T11:03:32;442.90;;;406.55;;
46765;SDS011;32527;51.986;5.842;2023-05-27T11:06:01;451.85;;;413.70;;
46765;SDS011;32527;51.986;5.842;2023-05-27T11:08:28;435.27;;;399.55;;
46765;SDS011;32527;51.986;5.842;2023-05-27T11:11:07;431.92;;;394.65;;
46765;SDS011;32527;51.986;5.842;2023-05-27T11:13:41;428.42;;;392.58;;
46765;SDS011;32527;51.986;5.842;2023-05-27T11:16:08;407.20;;;374.15;;
46765;SDS011;32527;51.986;5.842;2023-05-27T11:21:00;459.85;;;420.20;;
46765;SDS011;32527;51.986;5.842;2023-05-27T11:23:38;514.70;;;470.67;;
46765;SDS011;32527;51.986;5.842;2023-05-27T11:26:11;495.70;;;453.40;;
46765;SDS011;32527;51.986;5.842;2023-05-27T11:28:46;521.80;;;475.98;;
46765;SDS011;32527;51.986;5.842;2023-05-27T11:31:12;530.22;;;483.55;;
46765;SDS011;32527;51.986;5.842;2023-05-27T11:33:42;527.00;;;480.60;;
46765;SDS011;32527;51.986;5.842;2023-05-27T11:36:12;562.90;;;514.42;;
46765;SDS011;32527;51.986;5.842;2023-05-27T11:41:16;671.08;;;614.35;;
46765;SDS011;32527;51.986;5.842;2023-05-27T11:43:46;635.97;;;581.33;;
46765;SDS011;32527;51.986;5.842;2023-05-27T11:46:16;628.58;;;574.67;;
46765;SDS011;32527;51.986;5.842;2023-05-27T11:48:42;540.42;;;492.98;;
46765;SDS011;32527;51.986;5.842;2023-05-27T11:51:09;605.00;;;552.67;;
46765;SDS011;32527;51.986;5.842;2023-05-27T11:53:38;573.85;;;526.67;;
46765;SDS011;32527;51.986;5.842;2023-05-27T11:56:05;621.92;;;570.50;;
46765;SDS011;32527;51.986;5.842;2023-05-27T11:58:31;629.10;;;576.92;;
46765;SDS011;32527;51.986;5.842;2023-05-27T12:00:57;651.83;;;598.47;;
46765;SDS011;32527;51.986;5.842;2023-05-27T12:03:23;707.38;;;649.38;;
46765;SDS011;32527;51.986;5.842;2023-05-27T12:05:49;696.22;;;640.17;;
46765;SDS011;32527;51.986;5.842;2023-05-27T12:08:15;721.78;;;664.00;;
46765;SDS011;32527;51.986;5.842;2023-05-27T12:10:41;671.92;;;619.10;;
46765;SDS011;32527;51.986;5.842;2023-05-27T12:13:07;669.35;;;618.15;;
46765;SDS011;32527;51.986;5.842;2023-05-27T12:15:33;674.80;;;623.42;;
46765;SDS011;32527;51.986;5.842;2023-05-27T12:17:59;642.97;;;595.72;;
46765;SDS011;32527;51.986;5.842;2023-05-27T12:20:25;626.97;;;581.33;;
46765;SDS011;32527;51.986;5.842;2023-05-27T12:22:53;617.78;;;572.53;;
46765;SDS011;32527;51.986;5.842;2023-05-27T12:25:20;627.17;;;580.53;;
46765;SDS011;32527;51.986;5.842;2023-05-27T12:27:46;630.58;;;583.75;;
46765;SDS011;32527;51.986;5.842;2023-05-27T12:30:12;634.30;;;587.42;;
46765;SDS011;32527;51.986;5.842;2023-05-27T12:32:38;621.70;;;575.72;;
46765;SDS011;32527;51.986;5.842;2023-05-27T12:35:05;642.03;;;594.22;;
46765;SDS011;32527;51.986;5.842;2023-05-27T12:37:31;601.88;;;557.90;;
46765;SDS011;32527;51.986;5.842;2023-05-27T12:39:57;628.67;;;581.58;;
46765;SDS011;32527;51.986;5.842;2023-05-27T12:42:22;596.20;;;552.50;;
46765;SDS011;32527;51.986;5.842;2023-05-27T12:44:48;579.15;;;536.85;;
46765;SDS011;32527;51.986;5.842;2023-05-27T12:47:14;629.58;;;583.65;;
46765;SDS011;32527;51.986;5.842;2023-05-27T12:49:40;624.95;;;579.58;;
46765;SDS011;32527;51.986;5.842;2023-05-27T12:52:07;623.40;;;576.15;;
46765;SDS011;32527;51.986;5.842;2023-05-27T12:54:33;646.80;;;596.88;;
46765;SDS011;32527;51.986;5.842;2023-05-27T12:56:59;645.08;;;595.80;;
46765;SDS011;32527;51.986;5.842;2023-05-27T12:59:30;639.28;;;591.78;;
46765;SDS011;32527;51.986;5.842;2023-05-27T13:01:56;647.33;;;599.15;;
46765;SDS011;32527;51.986;5.842;2023-05-27T13:04:22;644.10;;;595.72;;
46765;SDS011;32527;51.986;5.842;2023-05-27T13:06:48;635.88;;;587.90;;
46765;SDS011;32527;51.986;5.842;2023-05-27T13:09:14;631.20;;;584.20;;
46765;SDS011;32527;51.986;5.842;2023-05-27T13:11:41;625.40;;;578.58;;
46765;SDS011;32527;51.986;5.842;2023-05-27T13:14:07;619.45;;;573.83;;
46765;SDS011;32527;51.986;5.842;2023-05-27T13:16:33;621.95;;;576.58;;
46765;SDS011;32527;51.986;5.842;2023-05-27T13:18:59;619.33;;;574.05;;
46765;SDS011;32527;51.986;5.842;2023-05-27T13:21:25;611.75;;;566.85;;
46765;SDS011;32527;51.986;5.842;2023-05-27T13:23:51;608.40;;;563.55;;
46765;SDS011;32527;51.986;5.842;2023-05-27T13:26:18;632.50;;;585.53;;
46765;SDS011;32527;51.986;5.842;2023-05-27T13:28:43;617.83;;;571.65;;
46765;SDS011;32527;51.986;5.842;2023-05-27T13:31:09;650.72;;;601.92;;
46765;SDS011;32527;51.986;5.842;2023-05-27T13:33:35;644.72;;;596.55;;
46765;SDS011;32527;51.986;5.842;2023-05-27T13:36:01;659.10;;;608.28;;
46765;SDS011;32527;51.986;5.842;2023-05-27T13:38:28;667.90;;;617.08;;
46765;SDS011;32527;51.986;5.842;2023-05-27T13:40:54;655.50;;;604.85;;
46765;SDS011;32527;51.986;5.842;2023-05-27T13:43:20;685.28;;;631.92;;
46765;SDS011;32527;51.986;5.842;2023-05-27T13:45:46;674.08;;;621.08;;
46765;SDS011;32527;51.986;5.842;2023-05-27T13:48:12;686.83;;;631.83;;
46765;SDS011;32527;51.986;5.842;2023-05-27T13:50:38;722.92;;;665.80;;
46765;SDS011;32527;51.986;5.842;2023-05-27T13:53:04;716.28;;;658.75;;
46765;SDS011;32527;51.986;5.842;2023-05-27T13:55:30;720.83;;;663.15;;
46765;SDS011;32527;51.986;5.842;2023-05-27T13:57:56;728.03;;;669.63;;
46765;SDS011;32527;51.986;5.842;2023-05-27T14:00:22;704.70;;;647.58;;
46765;SDS011;32527;51.986;5.842;2023-05-27T14:02:48;709.65;;;652.05;;
46765;SDS011;32527;51.986;5.842;2023-05-27T14:05:14;719.60;;;661.53;;
46765;SDS011;32527;51.986;5.842;2023-05-27T14:07:41;708.17;;;650.85;;
46765;SDS011;32527;51.986;5.842;2023-05-27T14:10:08;702.20;;;645.78;;
46765;SDS011;32527;51.986;5.842;2023-05-27T14:12:34;681.90;;;627.97;;
46765;SDS011;32527;51.986;5.842;2023-05-27T14:14:59;695.63;;;641.08;;
46765;SDS011;32527;51.986;5.842;2023-05-27T14:17:26;697.05;;;643.38;;
46765;SDS011;32527;51.986;5.842;2023-05-27T14:19:52;695.03;;;642.10;;
46765;SDS011;32527;51.986;5.842;2023-05-27T14:22:18;694.38;;;641.33;;
46765;SDS011;32527;51.986;5.842;2023-05-27T14:24:43;667.00;;;616.38;;
46765;SDS011;32527;51.986;5.842;2023-05-27T14:27:10;674.30;;;623.05;;
46765;SDS011;32527;51.986;5.842;2023-05-27T14:29:36;659.95;;;608.50;;
46765;SDS011;32527;51.986;5.842;2023-05-27T14:32:02;678.63;;;626.40;;
46765;SDS011;32527;51.986;5.842;2023-05-27T14:34:28;662.22;;;611.15;;
46765;SDS011;32527;51.986;5.842;2023-05-27T14:36:54;668.95;;;617.53;;
46765;SDS011;32527;51.986;5.842;2023-05-27T14:39:20;672.17;;;621.72;;
46765;SDS011;32527;51.986;5.842;2023-05-27T14:41:46;652.42;;;602.38;;
46765;SDS011;32527;51.986;5.842;2023-05-27T14:44:11;671.25;;;620.05;;